Shinseimaru — JI3713 — position and weather

sailwx.info

Track history (hours):
 
Tides and Currents Weather Stations Pressure Air Temp Water Temp Dewpoint Dewpoint Depression Visibility Wind Speed Wind Dir Waves Ship Positions

Shinseimaru

Last reported at 2017-Nov-07 10:55 UTC. Time now 2017-Nov-21 13:42 UTC.
Position N 34°36' E 135°07'.
Warning: this ship's position is 14 days out of date.

Length 84 m.

Type: Ship. MMSI: 431301705.

Date/timePositionNaut miles runAvg speedWind from/ knotsBaromVisibWave heightAir tempDewpointWater temp
2017-Nov-07 10:55N 34°36' E 135°07'512.1
2017-Nov-07 10:30N 34°36' E 135°13'612.1
2017-Nov-07 09:59N 34°37' E 135°21'4 0.5
2017-Nov-07 02:21N 34°36' E 135°25'2 0.5
2017-Nov-06 22:19N 34°36' E 135°23'3 9.1
2017-Nov-06 22:00N 34°35' E 135°19'510.0
2017-Nov-06 21:30N 34°35' E 135°13'610.7
2017-Nov-06 20:59N 34°35' E 135°07'3 0.1
2017-Nov-05 09:32N 34°36' E 135°04'112.8
2017-Nov-05 09:25N 34°36' E 135°05'512.5
2017-Nov-05 08:59N 34°36' E 135°12'611.9
2017-Nov-05 08:30N 34°37' E 135°19'6 0.7
2017-Nov-05 00:29N 34°35' E 135°26'510.4
2017-Nov-04 23:59N 34°36' E 135°19'611.3
2017-Nov-04 23:29N 34°35' E 135°12'611.2
2017-Nov-04 22:59N 34°35' E 135°06'3 0.1
2017-Nov-03 09:14N 34°36' E 135°09'312.4
2017-Nov-03 08:58N 34°36' E 135°13'511.8
2017-Nov-03 08:30N 34°36' E 135°19'511.0
2017-Nov-03 08:01N 34°35' E 135°26'0 0.0
2017-Nov-02 23:51N 34°35' E 135°26'3 9.9
2017-Nov-02 23:30N 34°36' E 135°22'510.8
2017-Nov-02 23:00N 34°35' E 135°16'510.4
2017-Nov-02 22:29N 34°35' E 135°09'510.1
2017-Nov-02 21:59N 34°36' E 135°03'18 0.4
2017-Nov-01 01:31N 34°36' E 135°25'0 8.4
2017-Nov-01 01:29N 34°36' E 135°24'1 1.6
2017-Nov-01 00:44N 34°36' E 135°23'0 0.0
2017-Nov-01 00:26N 34°36' E 135°23'1 1.6
2017-Oct-31 23:57N 34°36' E 135°22'510.8
2017-Oct-31 23:30N 34°35' E 135°16'5 9.6
2017-Oct-31 23:00N 34°35' E 135°11'5 0.1
2017-Oct-30 10:52N 34°36' E 135°04'411.5
2017-Oct-30 10:30N 34°36' E 135°09'712.2
2017-Oct-30 09:57N 34°36' E 135°18'512.0
2017-Oct-30 09:30N 34°36' E 135°24'1 0.1
2017-Oct-29 23:11N 34°36' E 135°25'210.3
2017-Oct-29 23:00N 34°36' E 135°23'610.9
2017-Oct-29 22:28N 34°35' E 135°17'511.0
2017-Oct-29 22:00N 34°34' E 135°10'510.9
2017-Oct-29 21:30N 34°35' E 135°04'  
Track history (hours):
 
Tides and Currents Weather Stations Pressure Air Temp Water Temp Dewpoint Dewpoint Depression Visibility Wind Speed Wind Dir Waves Ship Positions

Shinseimaru

Last reported at 2017-Nov-07 10:55 UTC. Time now 2017-Nov-21 13:42 UTC.
Position N 34°36' E 135°07'.
Warning: this ship's position is 14 days out of date.

Length 84 m.

Type: Ship. MMSI: 431301705.

Date/timePositionNaut miles runAvg speedWind from/ knotsBaromVisibWave heightAir tempDewpointWater temp
2017-Nov-07 10:55N 34°36' E 135°07'512.1
2017-Nov-07 10:30N 34°36' E 135°13'612.1
2017-Nov-07 09:59N 34°37' E 135°21'4 0.5
2017-Nov-07 02:21N 34°36' E 135°25'2 0.5
2017-Nov-06 22:19N 34°36' E 135°23'3 9.1
2017-Nov-06 22:00N 34°35' E 135°19'510.0
2017-Nov-06 21:30N 34°35' E 135°13'610.7
2017-Nov-06 20:59N 34°35' E 135°07'3 0.1
2017-Nov-05 09:32N 34°36' E 135°04'112.8
2017-Nov-05 09:25N 34°36' E 135°05'512.5
2017-Nov-05 08:59N 34°36' E 135°12'611.9
2017-Nov-05 08:30N 34°37' E 135°19'6 0.7
2017-Nov-05 00:29N 34°35' E 135°26'510.4
2017-Nov-04 23:59N 34°36' E 135°19'611.3
2017-Nov-04 23:29N 34°35' E 135°12'611.2
2017-Nov-04 22:59N 34°35' E 135°06'3 0.1
2017-Nov-03 09:14N 34°36' E 135°09'312.4
2017-Nov-03 08:58N 34°36' E 135°13'511.8
2017-Nov-03 08:30N 34°36' E 135°19'511.0
2017-Nov-03 08:01N 34°35' E 135°26'0 0.0
2017-Nov-02 23:51N 34°35' E 135°26'3 9.9
2017-Nov-02 23:30N 34°36' E 135°22'510.8
2017-Nov-02 23:00N 34°35' E 135°16'510.4
2017-Nov-02 22:29N 34°35' E 135°09'510.1
2017-Nov-02 21:59N 34°36' E 135°03'18 0.4
2017-Nov-01 01:31N 34°36' E 135°25'0 8.4
2017-Nov-01 01:29N 34°36' E 135°24'1 1.6
2017-Nov-01 00:44N 34°36' E 135°23'0 0.0
2017-Nov-01 00:26N 34°36' E 135°23'1 1.6
2017-Oct-31 23:57N 34°36' E 135°22'510.8
2017-Oct-31 23:30N 34°35' E 135°16'5 9.6
2017-Oct-31 23:00N 34°35' E 135°11'5 0.1
2017-Oct-30 10:52N 34°36' E 135°04'411.5
2017-Oct-30 10:30N 34°36' E 135°09'712.2
2017-Oct-30 09:57N 34°36' E 135°18'512.0
2017-Oct-30 09:30N 34°36' E 135°24'1 0.1
2017-Oct-29 23:11N 34°36' E 135°25'210.3
2017-Oct-29 23:00N 34°36' E 135°23'610.9
2017-Oct-29 22:28N 34°35' E 135°17'511.0
2017-Oct-29 22:00N 34°34' E 135°10'510.9
2017-Oct-29 21:30N 34°35' E 135°04'  

Dump ship's entire track history